createdAt,value
2022-10-12T00:02:56.378Z,99687.02
2022-10-12T00:07:58.194Z,99681.64
2022-10-12T00:13:00.742Z,99685.91
2022-10-12T00:18:02.901Z,99687.38
2022-10-12T00:23:04.862Z,99687.32
2022-10-12T00:28:07.933Z,99688.98
2022-10-12T00:33:09.974Z,99690.44
2022-10-12T00:38:11.930Z,99688.98
2022-10-12T00:43:26.032Z,99686.42
2022-10-12T00:48:28.599Z,99687.73
2022-10-12T00:53:38.117Z,99683.67
2022-10-12T00:58:55.010Z,99681.84
2022-10-12T01:04:07.318Z,99680.99
2022-10-12T01:09:09.065Z,99681.23
2022-10-12T01:14:11.705Z,99685.61
2022-10-12T01:19:34.780Z,99681.29
2022-10-12T01:24:46.821Z,99673.25
2022-10-12T01:30:31.007Z,99676.45
2022-10-12T01:35:40.958Z,99682.79
2022-10-12T01:40:55.137Z,99685.00
2022-10-12T01:45:56.947Z,99686.00
2022-10-12T01:51:03.326Z,99683.46
2022-10-12T01:56:21.165Z,99686.70
2022-10-12T02:01:50.348Z,99683.93
2022-10-12T02:07:04.132Z,99679.47
2022-10-12T02:12:22.313Z,99685.05
2022-10-12T02:17:24.104Z,99683.27
2022-10-12T02:22:35.692Z,99683.79
2022-10-12T02:27:43.312Z,99687.91
2022-10-12T02:32:56.844Z,99686.63
2022-10-12T02:38:09.822Z,99687.23
2022-10-12T02:43:18.611Z,99687.69
2022-10-12T02:48:23.924Z,99685.05
2022-10-12T02:53:33.963Z,99687.25
2022-10-12T02:58:49.949Z,99687.34
2022-10-12T03:03:51.705Z,99689.60
2022-10-12T03:08:57.022Z,99681.00
2022-10-12T03:13:59.146Z,99682.23
2022-10-12T03:19:00.882Z,99681.69
2022-10-12T03:24:03.025Z,99682.70
2022-10-12T03:29:05.554Z,99683.00
2022-10-12T03:34:07.425Z,99683.59
2022-10-12T03:39:09.185Z,99685.55
2022-10-12T03:44:10.948Z,99688.23
2022-10-12T03:49:12.675Z,99688.41
2022-10-12T03:54:14.492Z,99684.26
2022-10-12T03:59:16.534Z,99686.52
2022-10-12T04:04:24.824Z,99690.80
2022-10-12T04:09:26.787Z,99694.18
2022-10-12T04:14:28.560Z,99698.21
2022-10-12T04:19:30.732Z,99699.30
2022-10-12T04:24:32.603Z,99699.70
2022-10-12T04:29:34.594Z,99702.34
2022-10-12T04:34:36.818Z,99707.13
2022-10-12T04:39:38.581Z,99703.88
2022-10-12T04:44:40.310Z,99704.75
2022-10-12T04:49:42.115Z,99713.17
2022-10-12T04:54:43.874Z,99713.17
2022-10-12T04:59:45.723Z,99715.25
2022-10-12T05:04:47.450Z,99720.39
2022-10-12T05:09:49.401Z,99718.31
2022-10-12T05:14:51.198Z,99720.14
2022-10-12T05:19:52.921Z,99723.69
2022-10-12T05:24:54.644Z,99721.45
2022-10-12T05:29:56.559Z,99720.67
2022-10-12T05:34:58.310Z,99726.49
2022-10-12T05:40:07.462Z,99726.13
2022-10-12T05:45:09.962Z,99727.86
2022-10-12T05:50:12.077Z,99727.07
2022-10-12T05:55:13.909Z,99727.04
2022-10-12T06:00:15.777Z,99731.18
2022-10-12T06:05:17.913Z,99729.55
2022-10-12T06:10:19.702Z,99735.91
2022-10-12T06:15:21.476Z,99734.58
2022-10-12T06:20:23.434Z,99735.27
2022-10-12T06:25:25.290Z,99741.19
2022-10-12T06:30:27.243Z,99741.33
2022-10-12T06:35:28.925Z,99741.08
2022-10-12T06:40:30.697Z,99745.70
2022-10-12T06:45:32.935Z,99742.95
2022-10-12T06:50:35.378Z,99741.58
2022-10-12T06:55:40.209Z,99740.84
2022-10-12T07:00:42.092Z,99741.41
2022-10-12T07:05:59.518Z,99745.91
2022-10-12T07:11:04.061Z,99747.80
2022-10-12T07:16:06.536Z,99751.34
2022-10-12T07:21:08.364Z,99750.48
2022-10-12T07:26:30.954Z,99752.55
2022-10-12T07:31:43.268Z,99749.94
2022-10-12T07:36:58.723Z,99745.64
2022-10-12T07:42:01.595Z,99746.39
2022-10-12T07:47:03.448Z,99747.32
2022-10-12T07:52:05.201Z,99747.92
2022-10-12T07:57:07.053Z,99744.42
2022-10-12T08:02:11.739Z,99746.45
2022-10-12T08:07:13.467Z,99744.70
2022-10-12T08:12:15.771Z,99742.76
2022-10-12T08:17:17.689Z,99744.64
2022-10-12T08:22:19.673Z,99743.54
2022-10-12T08:27:21.419Z,99746.77
2022-10-12T08:32:23.304Z,99747.14
2022-10-12T08:37:25.239Z,99742.71
2022-10-12T08:42:44.791Z,99744.05
2022-10-12T08:47:52.875Z,99747.99
2022-10-12T08:53:06.908Z,99746.42
2022-10-12T08:58:44.938Z,99741.18
2022-10-12T09:04:09.701Z,99733.27
2022-10-12T09:09:40.058Z,99727.93
2022-10-12T09:14:45.335Z,99730.42
2022-10-12T09:19:47.921Z,99726.39
2022-10-12T09:24:51.140Z,99726.73
2022-10-12T09:29:57.995Z,99720.80
2022-10-12T09:35:17.230Z,99719.85
2022-10-12T09:40:33.449Z,99716.27
2022-10-12T09:45:36.179Z,99713.30
2022-10-12T09:50:59.135Z,99716.31
2022-10-12T09:56:24.214Z,99716.89
2022-10-12T10:01:29.481Z,99715.57
2022-10-12T10:06:31.597Z,99709.73
2022-10-12T10:11:33.441Z,99710.29
2022-10-12T10:16:48.214Z,99710.52
2022-10-12T10:21:49.936Z,99707.69
2022-10-12T10:26:59.261Z,99708.85
2022-10-12T10:32:29.919Z,99707.97
2022-10-12T10:37:33.400Z,99702.35
2022-10-12T10:42:35.294Z,99694.64
2022-10-12T10:47:46.316Z,99698.48
2022-10-12T10:52:58.556Z,99701.98
2022-10-12T10:58:12.392Z,99695.57
2022-10-12T11:03:28.828Z,99690.38
2022-10-12T11:08:33.705Z,99689.10
2022-10-12T11:13:44.362Z,99677.95
2022-10-12T11:18:54.384Z,99672.94
2022-10-12T11:24:12.597Z,99668.13
2022-10-12T11:29:18.113Z,99664.70
2022-10-12T11:34:23.168Z,99670.01
2022-10-12T11:39:33.968Z,99659.67
2022-10-12T11:44:43.036Z,99657.36
2022-10-12T11:49:55.461Z,99654.30
2022-10-12T11:55:24.977Z,99648.05
2022-10-12T12:01:21.127Z,99640.11
2022-10-12T12:06:43.915Z,99643.96
2022-10-12T12:12:13.804Z,99645.08
2022-10-12T12:17:28.097Z,99642.42
2022-10-12T12:22:52.384Z,99639.68
2022-10-12T12:27:56.152Z,99635.07
2022-10-12T12:33:26.808Z,99626.96
2022-10-12T12:38:31.528Z,99625.35
2022-10-12T12:43:33.200Z,99626.06
2022-10-12T12:48:47.128Z,99620.66
2022-10-12T12:54:15.401Z,99615.35
2022-10-12T12:59:56.137Z,99608.18
2022-10-12T13:05:27.999Z,99609.33
2022-10-12T13:10:42.369Z,99607.48
2022-10-12T13:16:02.854Z,99602.91
2022-10-12T13:21:08.121Z,99604.65
2022-10-12T13:26:15.741Z,99603.36
2022-10-12T13:31:27.175Z,99597.58
2022-10-12T13:36:46.697Z,99596.94
2022-10-12T13:41:51.568Z,99600.02
2022-10-12T13:46:59.327Z,99596.97
2022-10-12T13:52:24.158Z,99597.50
2022-10-12T13:57:37.197Z,99594.87
2022-10-12T14:02:38.974Z,99593.48
2022-10-12T14:07:44.199Z,99590.88
2022-10-12T14:12:53.296Z,99587.65
2022-10-12T14:17:55.098Z,99581.95
2022-10-12T14:23:01.960Z,99583.20
2022-10-12T14:28:06.797Z,99578.43
2022-10-12T14:33:21.686Z,99573.08
2022-10-12T14:38:35.933Z,99569.20
2022-10-12T14:44:10.988Z,99565.82
2022-10-12T14:49:20.026Z,99556.95
2022-10-12T14:54:22.342Z,99555.48
2022-10-12T14:59:24.239Z,99560.86
2022-10-12T15:04:25.978Z,99559.41
2022-10-12T15:09:27.737Z,99557.49
2022-10-12T15:14:29.818Z,99553.92
2022-10-12T15:19:32.064Z,99556.89
2022-10-12T15:24:34.308Z,99559.98
2022-10-12T15:29:36.172Z,99559.47
2022-10-12T15:34:46.718Z,99561.20
2022-10-12T15:39:49.730Z,99561.05
2022-10-12T15:44:51.405Z,99563.01
2022-10-12T15:49:53.536Z,99564.45
2022-10-12T15:54:57.050Z,99563.36
2022-10-12T15:59:58.972Z,99563.77
2022-10-12T16:05:06.858Z,99561.77
2022-10-12T16:10:13.869Z,99567.81
2022-10-12T16:15:24.140Z,99565.80
2022-10-12T16:20:27.992Z,99566.86
2022-10-12T16:25:33.460Z,99569.35
2022-10-12T16:30:35.403Z,99565.93
2022-10-12T16:35:40.149Z,99564.73
2022-10-12T16:40:56.245Z,99560.52
2022-10-12T16:45:57.970Z,99564.20
2022-10-12T16:50:59.787Z,99562.60
2022-10-12T16:56:02.459Z,99566.91
2022-10-12T17:01:12.420Z,99568.25
2022-10-12T17:06:14.359Z,99571.69
2022-10-12T17:11:18.765Z,99575.29
2022-10-12T17:16:49.699Z,99577.06
2022-10-12T17:21:52.570Z,99581.06
2022-10-12T17:26:55.858Z,99584.02
2022-10-12T17:31:58.454Z,99584.81
2022-10-12T17:37:06.458Z,99585.63
2022-10-12T17:42:08.554Z,99587.80
2022-10-12T17:47:12.150Z,99588.87
2022-10-12T17:52:14.019Z,99589.45
2022-10-12T17:57:16.392Z,99586.94
2022-10-12T18:02:18.665Z,99586.05
2022-10-12T18:07:20.770Z,99577.75
2022-10-12T18:12:29.464Z,99579.27
2022-10-12T18:17:34.195Z,99581.44
2022-10-12T18:22:36.002Z,99579.20
2022-10-12T18:27:37.996Z,99575.13
2022-10-12T18:32:39.599Z,99575.17
2022-10-12T18:37:41.343Z,99571.69
2022-10-12T18:42:49.056Z,99575.25
2022-10-12T18:47:51.336Z,99578.27
2022-10-12T18:52:56.274Z,99577.60
2022-10-12T18:57:58.035Z,99578.94
2022-10-12T19:03:00.352Z,99578.77
2022-10-12T19:08:02.131Z,99576.36
2022-10-12T19:13:03.846Z,99575.94
2022-10-12T19:18:10.029Z,99584.32
2022-10-12T19:23:11.686Z,99586.52
2022-10-12T19:28:13.463Z,99588.84
2022-10-12T19:33:18.212Z,99590.20
2022-10-12T19:38:21.856Z,99587.61
2022-10-12T19:43:23.885Z,99588.63
2022-10-12T19:48:27.227Z,99588.05
2022-10-12T19:53:29.793Z,99588.19
2022-10-12T19:58:32.639Z,99589.27
2022-10-12T20:03:35.513Z,99588.78
2022-10-12T20:08:38.862Z,99589.55
2022-10-12T20:13:40.658Z,99590.95
2022-10-12T20:18:42.810Z,99592.26
2022-10-12T20:23:45.427Z,99589.83
2022-10-12T20:28:47.919Z,99592.91
2022-10-12T20:33:53.708Z,99588.38
2022-10-12T20:38:57.601Z,99590.11
2022-10-12T20:44:00.922Z,99584.46
2022-10-12T20:49:04.123Z,99582.68
2022-10-12T20:54:08.790Z,99585.55
2022-10-12T20:59:11.371Z,99584.05
2022-10-12T21:04:13.837Z,99583.23
2022-10-12T21:09:16.346Z,99583.02
2022-10-12T21:14:18.043Z,99585.55
2022-10-12T21:19:20.597Z,99582.01
2022-10-12T21:24:22.366Z,99576.96
2022-10-12T21:29:24.185Z,99577.94
2022-10-12T21:34:26.336Z,99573.21
2022-10-12T21:39:29.478Z,99569.27
2022-10-12T21:44:31.217Z,99563.94
2022-10-12T21:49:33.250Z,99568.55
2022-10-12T21:54:34.881Z,99578.63
2022-10-12T21:59:36.881Z,99575.30
2022-10-12T22:04:38.689Z,99572.77
2022-10-12T22:09:40.566Z,99574.29
2022-10-12T22:14:42.561Z,99572.18
2022-10-12T22:19:45.031Z,99570.29
2022-10-12T22:24:47.133Z,99570.13
2022-10-12T22:29:48.944Z,99569.33
2022-10-12T22:34:52.219Z,99564.63
2022-10-12T22:39:54.389Z,99557.67
2022-10-12T22:44:56.749Z,99554.98
2022-10-12T22:49:58.800Z,99552.35
2022-10-12T22:55:00.913Z,99550.36
2022-10-12T23:00:02.783Z,99544.67
2022-10-12T23:05:07.022Z,99545.14
2022-10-12T23:10:09.216Z,99540.02
2022-10-12T23:15:12.308Z,99531.34
2022-10-12T23:20:16.032Z,99534.91
2022-10-12T23:25:20.987Z,99540.16
2022-10-12T23:30:29.204Z,99541.91
2022-10-12T23:35:32.984Z,99542.80
2022-10-12T23:40:39.413Z,99542.54
2022-10-12T23:45:43.888Z,99547.64
2022-10-12T23:50:47.329Z,99550.81
2022-10-12T23:55:50.658Z,99550.60
